To NAV CANADA Home Page Login to a new session Search on AWWS site Feedback and Comments Disclaimer Vers la page française équivalente Tips FAQ What's new on the site To the Forecasts and Observations / NOTAM section To "File a Flight Plan" website Publications and other links Update of the User's profile FIC Telephone Numbers My Weather Data Folder Route Weather Data Regional Weather Data Local Weather Data To the Forecasts and Observations / NOTAM section
Request Generated 05/24/2016 at 15:35:37 UTC . Weather information available at that time is displayed.

METAR/TAF

NATASHQUAN/QC    (show WxCam)

SPECI CYNA 241531Z AUTO 15011KT 9SM OVC007 12/10 A3002 RMK SLP168=
METAR CYNA 241500Z AUTO 16008KT 110V170 9SM OVC009 12/11 A3002 RMK
SLP167=
SPECI CYNA 241459Z AUTO 15006KT 110V170 9SM OVC009 12/11 A3002 RMK
SLP167=
METAR CYNA 241400Z AUTO 15011KT 9SM OVC005 12/10 A3003 RMK SLP170=
SPECI CYNA 241315Z AUTO 17008KT 9SM OVC005 11/11 A3003 RMK SLP171=
METAR CYNA 241300Z AUTO 16009KT 9SM OVC003 11/11 A3003 RMK SLP172=

TAF AMD CYNA 241512Z 2415/2502 16010KT P6SM OVC009 TEMPO 2415/2417
BKN020
FM241700 16012KT P6SM SCT015 TEMPO 2417/2419 BKN015
FM241900 16012KT P6SM SCT005 TEMPO 2419/2502 5SM BR BKN005 PROB40
2500/2502 1/2SM FG VV002
RMK FCST BASED ON AUTO OBS. NXT FCST BY 242000Z=
Your time UTC time
Weather data provided by Environment Canada and NAV CANADA